createdAt,value
2018-10-19T00:00:26.006Z,3.37
2018-10-19T00:02:55.099Z,2.63
2018-10-19T00:05:23.434Z,3.00
2018-10-19T00:07:51.729Z,2.70
2018-10-19T00:10:20.034Z,2.90
2018-10-19T00:12:48.381Z,2.60
2018-10-19T00:15:17.235Z,2.60
2018-10-19T00:17:45.394Z,3.30
2018-10-19T00:20:13.715Z,2.63
2018-10-19T00:22:42.039Z,2.90
2018-10-19T00:25:10.382Z,2.20
2018-10-19T00:27:39.008Z,2.40
2018-10-19T00:30:08.761Z,2.50
2018-10-19T00:32:37.128Z,3.27
2018-10-19T00:35:06.170Z,2.77
2018-10-19T00:37:35.037Z,2.60
2018-10-19T00:40:03.500Z,2.40
2018-10-19T00:42:31.827Z,2.53
2018-10-19T00:45:00.269Z,2.40
2018-10-19T00:47:28.830Z,2.70
2018-10-19T00:49:57.528Z,2.67
2018-10-19T00:52:25.863Z,2.90
2018-10-19T00:54:54.290Z,2.67
2018-10-19T00:57:22.647Z,3.60
2018-10-19T00:59:51.146Z,2.50
2018-10-19T01:02:19.780Z,2.77
2018-10-19T01:04:48.419Z,2.70
2018-10-19T01:07:16.782Z,2.43
2018-10-19T01:09:45.096Z,2.57
2018-10-19T01:12:20.307Z,2.80
2018-10-19T01:14:48.734Z,3.00
2018-10-19T01:17:17.075Z,2.67
2018-10-19T01:19:45.487Z,2.23
2018-10-19T01:22:14.060Z,2.80
2018-10-19T01:24:42.960Z,2.60
2018-10-19T01:27:11.430Z,2.80
2018-10-19T01:29:39.739Z,3.10
2018-10-19T01:32:08.134Z,2.80
2018-10-19T01:34:36.456Z,2.80
2018-10-19T01:37:05.781Z,2.70
2018-10-19T01:39:34.073Z,2.80
2018-10-19T01:42:02.392Z,2.80
2018-10-19T01:44:32.230Z,2.33
2018-10-19T01:47:00.670Z,2.90
2018-10-19T01:49:29.019Z,2.60
2018-10-19T01:51:57.337Z,2.37
2018-10-19T01:54:26.031Z,2.87
2018-10-19T01:56:54.392Z,3.40
2018-10-19T01:59:22.711Z,2.20
2018-10-19T02:01:51.168Z,2.70
2018-10-19T02:04:19.891Z,2.80
2018-10-19T02:06:48.263Z,2.47
2018-10-19T02:09:16.973Z,2.87
2018-10-19T02:11:45.288Z,2.43
2018-10-19T02:14:13.870Z,2.33
2018-10-19T02:16:42.560Z,2.60
2018-10-19T02:19:10.906Z,2.83
2018-10-19T02:21:39.219Z,2.40
2018-10-19T02:24:07.487Z,2.80
2018-10-19T02:26:36.290Z,2.50
2018-10-19T02:29:05.011Z,2.20
2018-10-19T02:31:33.411Z,2.60
2018-10-19T02:34:01.668Z,3.07
2018-10-19T02:36:30.106Z,2.90
2018-10-19T02:38:58.899Z,2.80
2018-10-19T02:41:27.337Z,2.40
2018-10-19T02:43:56.590Z,2.50
2018-10-19T02:46:25.537Z,2.80
2018-10-19T02:48:53.896Z,2.47
2018-10-19T02:51:22.198Z,2.73
2018-10-19T02:53:50.576Z,2.43
2018-10-19T02:56:19.067Z,2.80
2018-10-19T02:58:47.605Z,2.30
2018-10-19T03:01:16.675Z,2.50
2018-10-19T03:03:44.985Z,2.47
2018-10-19T03:06:13.652Z,2.63
2018-10-19T03:08:43.659Z,2.43
2018-10-19T03:11:12.106Z,2.50
2018-10-19T03:13:40.536Z,2.13
2018-10-19T03:16:08.990Z,3.23
2018-10-19T03:18:37.322Z,2.50
2018-10-19T03:21:06.086Z,2.43
2018-10-19T03:23:34.413Z,2.60
2018-10-19T03:26:02.726Z,3.00
2018-10-19T03:28:31.031Z,3.50
2018-10-19T03:30:59.396Z,3.17
2018-10-19T03:33:28.009Z,3.03
2018-10-19T03:35:56.328Z,2.90
2018-10-19T03:38:24.628Z,2.67
2018-10-19T03:40:52.972Z,2.77
2018-10-19T03:43:21.284Z,2.40
2018-10-19T03:45:49.604Z,2.33
2018-10-19T03:48:17.909Z,2.17
2018-10-19T03:50:46.281Z,2.93
2018-10-19T03:53:14.776Z,3.10
2018-10-19T03:55:43.065Z,2.40
2018-10-19T03:58:11.522Z,2.33
2018-10-19T04:03:36.446Z,2.63
2018-10-19T04:06:05.575Z,2.80
2018-10-19T04:08:34.850Z,2.50
2018-10-19T04:11:03.984Z,3.53
2018-10-19T04:13:33.125Z,2.40
2018-10-19T04:16:02.379Z,2.87
2018-10-19T04:18:31.525Z,2.23
2018-10-19T04:21:00.762Z,2.27
2018-10-19T04:23:29.920Z,3.07
2018-10-19T04:25:59.171Z,2.87
2018-10-19T04:28:28.419Z,3.00
2018-10-19T04:30:57.967Z,2.70
2018-10-19T04:33:27.632Z,2.70
2018-10-19T04:35:56.976Z,2.73
2018-10-19T04:38:26.013Z,2.90
2018-10-19T04:40:55.380Z,2.93
2018-10-19T04:43:25.673Z,3.30
2018-10-19T04:45:54.980Z,2.93
2018-10-19T04:48:24.153Z,3.30
2018-10-19T04:50:53.445Z,2.90
2018-10-19T04:53:22.656Z,2.70
2018-10-19T04:55:51.982Z,2.77
2018-10-19T04:58:21.081Z,2.73
2018-10-19T05:00:50.313Z,2.83
2018-10-19T05:03:19.745Z,3.50
2018-10-19T05:05:49.086Z,3.67
2018-10-19T05:08:18.315Z,2.97
2018-10-19T05:10:47.512Z,3.67
2018-10-19T05:13:16.759Z,2.90
2018-10-19T05:15:45.976Z,3.13
2018-10-19T05:18:15.285Z,2.77
2018-10-19T05:20:44.698Z,3.40
2018-10-19T05:23:14.335Z,2.90
2018-10-19T05:25:43.732Z,2.73
2018-10-19T05:28:13.280Z,3.70
2018-10-19T05:30:42.706Z,3.43
2018-10-19T05:33:12.131Z,3.17
2018-10-19T05:35:41.752Z,2.80
2018-10-19T05:38:12.534Z,2.90
2018-10-19T05:40:41.858Z,2.80
2018-10-19T05:43:11.136Z,2.70
2018-10-19T05:45:40.244Z,2.70
2018-10-19T05:48:09.528Z,2.80
2018-10-19T05:50:38.884Z,2.90
2018-10-19T05:53:07.991Z,3.10
2018-10-19T05:55:37.138Z,3.37
2018-10-19T05:58:07.145Z,3.63
2018-10-19T06:00:37.571Z,4.00
2018-10-19T06:03:09.867Z,3.40
2018-10-19T06:05:39.945Z,3.50
2018-10-19T06:08:09.559Z,3.70
2018-10-19T06:10:38.949Z,3.20
2018-10-19T06:13:09.367Z,3.10
2018-10-19T06:15:39.817Z,3.80
2018-10-19T06:18:09.328Z,3.27
2018-10-19T06:20:41.432Z,3.90
2018-10-19T06:23:10.825Z,3.10
2018-10-19T06:25:40.105Z,4.57
2018-10-19T06:28:09.691Z,4.10
2018-10-19T06:30:39.054Z,4.33
2018-10-19T06:33:08.571Z,4.30
2018-10-19T06:35:38.022Z,3.53
2018-10-19T06:38:07.934Z,4.27
2018-10-19T06:40:37.175Z,3.90
2018-10-19T06:43:06.374Z,3.40
2018-10-19T06:45:35.622Z,4.33
2018-10-19T06:48:04.863Z,3.70
2018-10-19T06:50:34.128Z,3.87
2018-10-19T06:53:03.236Z,4.10
2018-10-19T06:55:32.432Z,3.73
2018-10-19T06:58:01.575Z,4.10
2018-10-19T07:00:30.913Z,4.00
2018-10-19T07:03:00.331Z,4.20
2018-10-19T07:05:29.698Z,4.20
2018-10-19T07:07:59.132Z,5.00
2018-10-19T07:10:28.320Z,7.20
2018-10-19T07:12:57.738Z,4.40
2018-10-19T07:15:27.020Z,4.10
2018-10-19T07:17:56.316Z,4.00
2018-10-19T07:20:25.678Z,5.30
2018-10-19T07:22:55.101Z,4.50
2018-10-19T07:25:24.420Z,4.93
2018-10-19T07:27:53.508Z,4.70
2018-10-19T07:30:22.823Z,5.80
2018-10-19T07:32:52.140Z,4.40
2018-10-19T07:35:21.453Z,4.27
2018-10-19T07:37:50.727Z,5.07
2018-10-19T07:40:19.936Z,4.63
2018-10-19T07:42:49.305Z,4.90
2018-10-19T07:45:18.684Z,5.40
2018-10-19T07:47:48.128Z,5.00
2018-10-19T07:50:17.270Z,4.30
2018-10-19T07:52:46.690Z,11.17
2018-10-19T07:55:16.132Z,4.70
2018-10-19T07:57:45.656Z,5.00
2018-10-19T08:00:15.546Z,4.97
2018-10-19T08:02:44.637Z,4.40
2018-10-19T08:05:13.956Z,4.40
2018-10-19T08:07:43.035Z,5.20
2018-10-19T08:10:12.291Z,5.07
2018-10-19T08:12:41.461Z,4.70
2018-10-19T08:15:10.744Z,4.50
2018-10-19T08:17:40.105Z,4.47
2018-10-19T08:20:09.801Z,3.87
2018-10-19T08:22:39.044Z,5.10
2018-10-19T08:25:08.680Z,4.80
2018-10-19T08:27:37.867Z,4.87
2018-10-19T08:30:07.192Z,3.90
2018-10-19T08:32:36.559Z,4.40
2018-10-19T08:35:06.374Z,4.37
2018-10-19T08:37:35.627Z,4.27
2018-10-19T08:40:05.669Z,4.70
2018-10-19T08:42:34.968Z,5.00
2018-10-19T08:45:04.264Z,5.50
2018-10-19T08:47:33.456Z,4.07
2018-10-19T08:50:02.729Z,5.00
2018-10-19T08:52:31.898Z,3.77
2018-10-19T08:55:01.117Z,5.23
2018-10-19T08:57:30.283Z,3.80
2018-10-19T08:59:59.387Z,3.97
2018-10-19T09:02:28.692Z,4.27
2018-10-19T09:04:57.931Z,3.93
2018-10-19T09:07:27.510Z,3.60
2018-10-19T09:09:56.883Z,3.13
2018-10-19T09:12:26.253Z,3.27
2018-10-19T09:14:56.919Z,3.50
2018-10-19T09:17:27.406Z,3.33
2018-10-19T09:19:56.576Z,4.03
2018-10-19T09:22:25.843Z,3.33
2018-10-19T09:24:55.105Z,3.23
2018-10-19T09:27:24.856Z,28.83
2018-10-19T09:29:54.040Z,10.40
2018-10-19T09:32:23.377Z,4.70
2018-10-19T09:34:52.763Z,3.03
2018-10-19T09:37:21.966Z,3.73
2018-10-19T09:39:55.226Z,3.60
2018-10-19T09:42:24.784Z,3.37
2018-10-19T09:44:54.046Z,3.13
2018-10-19T09:47:23.308Z,3.57
2018-10-19T09:49:52.512Z,3.03
2018-10-19T09:52:21.656Z,2.80
2018-10-19T09:54:50.871Z,3.30
2018-10-19T09:57:20.147Z,3.33
2018-10-19T09:59:49.519Z,2.60
2018-10-19T10:02:18.634Z,3.23
2018-10-19T10:04:47.915Z,2.57
2018-10-19T10:07:17.178Z,2.90
2018-10-19T10:09:46.499Z,3.00
2018-10-19T10:12:15.777Z,2.40
2018-10-19T10:14:45.146Z,2.00
2018-10-19T10:17:14.465Z,2.43
2018-10-19T10:19:43.961Z,2.20
2018-10-19T10:22:13.458Z,1.97
2018-10-19T10:24:42.786Z,1.67
2018-10-19T10:27:11.971Z,1.90
2018-10-19T10:29:41.709Z,2.33
2018-10-19T10:32:11.219Z,2.40
2018-10-19T10:34:41.903Z,1.90
2018-10-19T10:37:11.712Z,3.00
2018-10-19T10:39:40.678Z,2.37
2018-10-19T10:42:09.978Z,2.73
2018-10-19T10:44:39.477Z,1.83
2018-10-19T10:47:09.432Z,2.23
2018-10-19T10:49:38.767Z,2.67
2018-10-19T10:52:08.152Z,3.47
2018-10-19T10:54:37.548Z,2.90
2018-10-19T10:57:07.148Z,2.73
2018-10-19T10:59:36.537Z,2.77
2018-10-19T11:02:05.922Z,2.23
2018-10-19T11:04:34.945Z,2.80
2018-10-19T11:07:04.235Z,3.77
2018-10-19T11:09:33.532Z,2.97
2018-10-19T11:12:02.637Z,3.93
2018-10-19T11:14:31.864Z,2.70
2018-10-19T11:17:01.241Z,2.13
2018-10-19T11:19:30.517Z,3.10
2018-10-19T11:21:59.773Z,3.10
2018-10-19T11:24:29.239Z,2.17
2018-10-19T11:26:58.450Z,2.20
2018-10-19T11:29:27.601Z,2.13
2018-10-19T11:31:56.776Z,2.37
2018-10-19T11:34:26.105Z,2.43
2018-10-19T11:36:55.478Z,2.03
2018-10-19T11:39:24.706Z,2.47
2018-10-19T11:41:53.924Z,2.13
2018-10-19T11:44:23.081Z,2.33
2018-10-19T11:46:52.324Z,1.90
2018-10-19T11:49:21.625Z,2.00
2018-10-19T11:51:50.920Z,2.10
2018-10-19T11:54:20.192Z,2.30
2018-10-19T11:56:49.542Z,2.10
2018-10-19T11:59:18.679Z,1.80
2018-10-19T12:01:47.931Z,1.83
2018-10-19T12:04:20.064Z,1.80
2018-10-19T12:06:49.198Z,1.63
2018-10-19T12:09:18.355Z,2.10
2018-10-19T12:11:47.405Z,2.07
2018-10-19T12:14:16.539Z,2.30
2018-10-19T12:16:46.058Z,1.90
2018-10-19T12:19:15.259Z,1.93
2018-10-19T12:21:44.510Z,1.90
2018-10-19T12:24:13.840Z,2.43
2018-10-19T12:26:43.179Z,1.80
2018-10-19T12:29:12.367Z,2.47
2018-10-19T12:31:43.375Z,3.57
2018-10-19T12:34:12.425Z,2.13
2018-10-19T12:36:41.770Z,2.40
2018-10-19T12:39:11.565Z,2.27
2018-10-19T12:41:40.853Z,1.90
2018-10-19T12:44:10.016Z,2.00
2018-10-19T12:46:51.032Z,1.97
2018-10-19T12:49:22.008Z,2.40
2018-10-19T12:51:51.245Z,2.00
2018-10-19T12:54:20.396Z,1.80
2018-10-19T12:56:49.879Z,1.70
2018-10-19T12:59:19.129Z,1.70
2018-10-19T13:01:48.528Z,1.80
2018-10-19T13:04:26.791Z,2.00
2018-10-19T13:06:56.149Z,1.93
2018-10-19T13:09:25.351Z,2.03
2018-10-19T13:11:54.535Z,2.20
2018-10-19T13:14:23.720Z,1.77
2018-10-19T13:16:53.054Z,1.80
2018-10-19T13:19:22.395Z,1.80
2018-10-19T13:21:51.587Z,2.80
2018-10-19T13:24:20.917Z,2.27
2018-10-19T13:26:50.255Z,2.00
2018-10-19T13:29:19.412Z,2.07
2018-10-19T13:31:48.805Z,1.70
2018-10-19T13:34:18.175Z,2.00
2018-10-19T13:36:48.309Z,2.20
2018-10-19T13:39:17.629Z,2.07
2018-10-19T13:41:46.825Z,1.50
2018-10-19T13:44:16.128Z,1.57
2018-10-19T13:46:45.372Z,1.83
2018-10-19T13:49:14.519Z,1.60
2018-10-19T13:51:43.760Z,1.60
2018-10-19T13:54:12.837Z,1.73
2018-10-19T13:56:42.152Z,1.80
2018-10-19T13:59:11.570Z,1.47
2018-10-19T14:01:40.751Z,1.83
2018-10-19T14:04:09.621Z,1.50
2018-10-19T14:06:38.752Z,1.70
2018-10-19T14:09:10.305Z,1.90
2018-10-19T14:11:40.046Z,1.60
2018-10-19T14:14:09.272Z,1.50
2018-10-19T14:16:38.627Z,1.57
2018-10-19T14:19:07.998Z,2.00
2018-10-19T14:21:36.883Z,1.40
2018-10-19T14:24:06.113Z,2.00
2018-10-19T14:26:35.527Z,1.90
2018-10-19T14:29:05.059Z,1.87
2018-10-19T14:31:34.402Z,1.60
2018-10-19T14:34:03.696Z,1.93
2018-10-19T14:36:32.883Z,2.17
2018-10-19T14:39:02.123Z,2.03
2018-10-19T14:41:31.493Z,1.83
2018-10-19T14:44:00.808Z,2.00
2018-10-19T14:46:30.087Z,1.50
2018-10-19T14:49:00.079Z,2.00
2018-10-19T14:51:29.648Z,1.50
2018-10-19T14:53:59.627Z,1.47
2018-10-19T14:56:28.940Z,1.90
2018-10-19T14:58:58.347Z,1.90
2018-10-19T15:01:27.566Z,1.70
2018-10-19T15:03:56.816Z,2.17
2018-10-19T15:06:26.056Z,1.40
2018-10-19T15:08:55.166Z,1.50
2018-10-19T15:11:25.003Z,1.70
2018-10-19T15:13:53.825Z,2.57
2018-10-19T15:16:23.056Z,2.00
2018-10-19T15:18:52.433Z,1.70
2018-10-19T15:21:21.737Z,2.07
2018-10-19T15:23:51.235Z,1.97
2018-10-19T15:26:20.463Z,2.40
2018-10-19T15:28:49.844Z,2.80
2018-10-19T15:31:19.379Z,2.30
2018-10-19T15:33:48.940Z,2.43
2018-10-19T15:36:18.175Z,2.83
2018-10-19T15:38:47.437Z,1.90
2018-10-19T15:41:16.683Z,2.60
2018-10-19T15:43:45.941Z,2.63
2018-10-19T15:46:15.418Z,2.17
2018-10-19T15:48:44.794Z,2.00
2018-10-19T15:51:14.124Z,2.00
2018-10-19T15:53:43.429Z,2.30
2018-10-19T15:56:12.743Z,2.20
2018-10-19T15:58:42.023Z,2.37
2018-10-19T16:01:11.264Z,2.80
2018-10-19T16:03:40.611Z,2.40
2018-10-19T16:06:09.979Z,2.50
2018-10-19T16:08:39.319Z,2.80
2018-10-19T16:11:08.697Z,2.53
2018-10-19T16:13:38.123Z,2.70
2018-10-19T16:16:07.889Z,2.93
2018-10-19T16:18:37.168Z,3.00
2018-10-19T16:21:06.520Z,2.90
2018-10-19T16:23:35.768Z,2.93
2018-10-19T16:26:05.128Z,3.10
2018-10-19T16:28:34.494Z,3.30
2018-10-19T16:31:03.800Z,3.10
2018-10-19T16:33:32.848Z,2.60
2018-10-19T16:36:02.522Z,2.27
2018-10-19T16:38:31.748Z,2.53
2018-10-19T16:41:00.981Z,2.67
2018-10-19T16:43:30.149Z,3.83
2018-10-19T16:45:59.367Z,2.50
2018-10-19T16:48:28.568Z,3.20
2018-10-19T16:50:57.697Z,3.40
2018-10-19T16:53:26.972Z,2.87
2018-10-19T16:55:56.348Z,3.37
2018-10-19T16:58:25.982Z,3.20
2018-10-19T17:00:55.159Z,3.17
2018-10-19T17:03:24.382Z,3.20
2018-10-19T17:05:53.831Z,2.77
2018-10-19T17:08:22.884Z,3.07
2018-10-19T17:10:52.107Z,3.43
2018-10-19T17:13:21.487Z,3.00
2018-10-19T17:15:50.928Z,3.00
2018-10-19T17:18:20.265Z,3.00
2018-10-19T17:20:49.392Z,3.80
2018-10-19T17:23:18.427Z,3.30
2018-10-19T17:25:47.552Z,4.10
2018-10-19T17:28:16.857Z,3.07
2018-10-19T17:30:46.077Z,3.70
2018-10-19T17:33:15.512Z,3.83
2018-10-19T17:35:44.759Z,3.27
2018-10-19T17:38:13.959Z,3.30
2018-10-19T17:40:43.252Z,3.40
2018-10-19T17:43:12.393Z,3.53
2018-10-19T17:45:41.768Z,3.37
2018-10-19T17:48:11.098Z,3.90
2018-10-19T17:50:40.617Z,2.90
2018-10-19T17:53:09.823Z,3.83
2018-10-19T17:55:39.063Z,3.80
2018-10-19T17:58:08.219Z,3.60
2018-10-19T18:00:37.718Z,3.43
2018-10-19T18:03:07.311Z,4.00
2018-10-19T18:05:36.571Z,4.60
2018-10-19T18:08:05.552Z,3.47
2018-10-19T18:10:34.664Z,4.20
2018-10-19T18:13:04.029Z,3.73
2018-10-19T18:15:34.539Z,4.80
2018-10-19T18:18:04.053Z,3.63
2018-10-19T18:20:33.623Z,4.50
2018-10-19T18:23:03.025Z,4.37
2018-10-19T18:25:32.214Z,5.00
2018-10-19T18:28:01.492Z,4.10
2018-10-19T18:30:30.829Z,4.50
2018-10-19T18:32:59.965Z,5.00
2018-10-19T18:35:29.093Z,4.50
2018-10-19T18:37:58.320Z,4.60
2018-10-19T18:40:27.504Z,4.33
2018-10-19T18:42:57.128Z,5.80
2018-10-19T18:45:26.528Z,4.90
2018-10-19T18:47:55.682Z,4.93
2018-10-19T18:50:25.166Z,5.37
2018-10-19T18:52:54.271Z,6.67
2018-10-19T18:55:23.500Z,7.10
2018-10-19T18:57:52.874Z,6.43
2018-10-19T19:00:29.748Z,7.63
2018-10-19T19:03:13.690Z,6.47
2018-10-19T19:05:42.911Z,6.43
2018-10-19T19:08:12.144Z,6.90
2018-10-19T19:10:41.424Z,7.33
2018-10-19T19:13:15.487Z,6.50
2018-10-19T19:15:44.719Z,6.13
2018-10-19T19:18:13.891Z,6.50
2018-10-19T19:20:44.045Z,6.77
2018-10-19T19:23:13.166Z,6.50
2018-10-19T19:25:47.367Z,7.03
2018-10-19T19:28:16.572Z,7.27
2018-10-19T19:30:45.662Z,7.27
2018-10-19T19:33:20.027Z,8.40
2018-10-19T19:35:49.333Z,7.80
2018-10-19T19:38:18.351Z,8.50
2018-10-19T19:40:52.797Z,7.50
2018-10-19T19:43:21.967Z,7.13
2018-10-19T19:45:51.316Z,7.60
2018-10-19T19:48:25.531Z,7.63
2018-10-19T19:50:54.891Z,7.67
2018-10-19T19:53:24.054Z,7.73
2018-10-19T19:55:53.193Z,7.93
2018-10-19T19:58:22.557Z,8.10
2018-10-19T20:00:51.788Z,7.67
2018-10-19T20:03:21.061Z,8.33
2018-10-19T20:05:50.344Z,8.40
2018-10-19T20:08:19.691Z,8.30
2018-10-19T20:10:48.676Z,8.00
2018-10-19T20:13:17.939Z,7.27
2018-10-19T20:15:47.286Z,7.77
2018-10-19T20:18:16.606Z,7.90
2018-10-19T20:20:45.795Z,7.27
2018-10-19T20:23:15.109Z,7.80
2018-10-19T20:25:44.402Z,7.83
2018-10-19T20:28:13.662Z,9.30
2018-10-19T20:30:42.870Z,8.00
2018-10-19T20:33:12.162Z,7.80
2018-10-19T20:35:41.412Z,8.23
2018-10-19T20:38:10.703Z,8.60
2018-10-19T20:40:39.973Z,8.50
2018-10-19T20:43:09.262Z,7.90
2018-10-19T20:45:38.475Z,9.50
2018-10-19T20:48:07.662Z,9.93
2018-10-19T20:50:36.956Z,9.47
2018-10-19T20:53:06.449Z,9.20
2018-10-19T20:55:35.579Z,9.40
2018-10-19T20:58:04.632Z,9.60
2018-10-19T21:00:33.980Z,9.00
2018-10-19T21:03:03.248Z,8.80
2018-10-19T21:05:41.487Z,8.60
2018-10-19T21:08:10.937Z,9.77
2018-10-19T21:10:40.090Z,9.53
2018-10-19T21:13:09.069Z,10.00
2018-10-19T21:15:38.281Z,9.10
2018-10-19T21:18:07.663Z,10.20
2018-10-19T21:20:36.875Z,9.50
2018-10-19T21:23:06.195Z,10.03
2018-10-19T21:25:35.565Z,9.83
2018-10-19T21:28:04.848Z,9.87
2018-10-19T21:30:33.970Z,9.47
2018-10-19T21:33:03.559Z,9.70
2018-10-19T21:35:32.868Z,8.97
2018-10-19T21:38:02.254Z,8.50
2018-10-19T21:40:31.582Z,10.37
2018-10-19T21:43:00.640Z,10.20
2018-10-19T21:45:29.906Z,9.27
2018-10-19T21:47:59.136Z,8.93
2018-10-19T21:50:28.357Z,11.50
2018-10-19T21:52:57.530Z,9.87
2018-10-19T21:55:26.943Z,10.50
2018-10-19T21:57:56.334Z,9.77
2018-10-19T22:00:25.672Z,10.80
2018-10-19T22:02:54.834Z,11.50
2018-10-19T22:05:24.060Z,10.97
2018-10-19T22:07:53.382Z,11.03
2018-10-19T22:10:23.217Z,11.03
2018-10-19T22:12:52.593Z,10.90
2018-10-19T22:15:21.789Z,11.20
2018-10-19T22:17:50.937Z,10.30
2018-10-19T22:20:20.314Z,11.40
2018-10-19T22:22:49.543Z,10.37
2018-10-19T22:25:19.186Z,12.13
2018-10-19T22:27:48.571Z,12.10
2018-10-19T22:30:17.795Z,13.30
2018-10-19T22:32:47.045Z,15.67
2018-10-19T22:35:16.348Z,14.30
2018-10-19T22:37:45.483Z,16.40
2018-10-19T22:40:14.680Z,15.13
2018-10-19T22:42:43.888Z,15.20
2018-10-19T22:45:13.104Z,15.27
2018-10-19T22:47:42.258Z,13.53
2018-10-19T22:50:11.476Z,13.00
2018-10-19T22:52:40.664Z,14.43
2018-10-19T22:55:10.159Z,15.10
2018-10-19T22:57:39.356Z,13.47
2018-10-19T23:00:09.367Z,13.77
2018-10-19T23:02:38.664Z,14.27
2018-10-19T23:05:07.990Z,14.23
2018-10-19T23:07:37.193Z,12.17
2018-10-19T23:10:07.284Z,13.87
2018-10-19T23:12:36.846Z,13.43
2018-10-19T23:15:06.603Z,12.30
2018-10-19T23:17:35.720Z,12.37
2018-10-19T23:20:04.976Z,12.60
2018-10-19T23:22:34.096Z,12.13
2018-10-19T23:25:03.370Z,11.20
2018-10-19T23:27:32.622Z,12.13
2018-10-19T23:31:04.653Z,10.30
2018-10-19T23:33:34.008Z,11.67
2018-10-19T23:36:03.618Z,11.37
2018-10-19T23:38:32.647Z,11.00
2018-10-19T23:41:01.955Z,10.37
2018-10-19T23:43:31.269Z,12.10
2018-10-19T23:46:00.631Z,10.97
2018-10-19T23:48:29.976Z,10.30
2018-10-19T23:50:59.098Z,10.43
2018-10-19T23:53:28.478Z,10.43
2018-10-19T23:55:57.703Z,10.03
2018-10-19T23:58:26.882Z,9.30
